sensor_id;sensor_type;location;lat;lon;timestamp;temperature;humidity
65876;HTU21D;52657;51.128;5.938;2023-05-07T00:02:04;18.59;71.70
65876;HTU21D;52657;51.128;5.938;2023-05-07T00:04:30;18.61;71.61
65876;HTU21D;52657;51.128;5.938;2023-05-07T00:07:02;18.62;71.45
65876;HTU21D;52657;51.128;5.938;2023-05-07T00:09:28;18.62;71.34
65876;HTU21D;52657;51.128;5.938;2023-05-07T00:11:54;18.62;71.21
65876;HTU21D;52657;51.128;5.938;2023-05-07T00:14:20;18.61;71.17
65876;HTU21D;52657;51.128;5.938;2023-05-07T00:16:46;18.58;71.16
65876;HTU21D;52657;51.128;5.938;2023-05-07T00:19:12;18.56;71.26
65876;HTU21D;52657;51.128;5.938;2023-05-07T00:21:38;18.57;71.19
65876;HTU21D;52657;51.128;5.938;2023-05-07T00:24:03;18.57;71.21
65876;HTU21D;52657;51.128;5.938;2023-05-07T00:26:29;18.56;71.20
65876;HTU21D;52657;51.128;5.938;2023-05-07T00:28:55;18.56;71.21
65876;HTU21D;52657;51.128;5.938;2023-05-07T00:31:21;18.55;71.35
65876;HTU21D;52657;51.128;5.938;2023-05-07T00:33:46;18.55;71.39
65876;HTU21D;52657;51.128;5.938;2023-05-07T00:36:12;18.52;71.41
65876;HTU21D;52657;51.128;5.938;2023-05-07T00:38:38;18.52;71.55
65876;HTU21D;52657;51.128;5.938;2023-05-07T00:41:03;18.49;71.73
65876;HTU21D;52657;51.128;5.938;2023-05-07T00:43:29;18.47;71.84
65876;HTU21D;52657;51.128;5.938;2023-05-07T00:45:55;18.46;71.93
65876;HTU21D;52657;51.128;5.938;2023-05-07T00:48:21;18.47;72.06
65876;HTU21D;52657;51.128;5.938;2023-05-07T00:50:47;18.50;72.05
65876;HTU21D;52657;51.128;5.938;2023-05-07T00:53:14;18.52;72.03
65876;HTU21D;52657;51.128;5.938;2023-05-07T00:55:39;18.53;71.98
65876;HTU21D;52657;51.128;5.938;2023-05-07T00:58:06;18.55;71.94
65876;HTU21D;52657;51.128;5.938;2023-05-07T01:00:32;18.55;71.93
65876;HTU21D;52657;51.128;5.938;2023-05-07T01:02:58;18.57;71.81
65876;HTU21D;52657;51.128;5.938;2023-05-07T01:05:26;18.56;71.78
65876;HTU21D;52657;51.128;5.938;2023-05-07T01:07:54;18.56;71.72
65876;HTU21D;52657;51.128;5.938;2023-05-07T01:10:21;18.55;71.67
65876;HTU21D;52657;51.128;5.938;2023-05-07T01:12:49;18.54;71.54
65876;HTU21D;52657;51.128;5.938;2023-05-07T01:15:16;18.49;71.49
65876;HTU21D;52657;51.128;5.938;2023-05-07T01:17:43;18.44;71.61
65876;HTU21D;52657;51.128;5.938;2023-05-07T01:20:18;18.41;71.73
65876;HTU21D;52657;51.128;5.938;2023-05-07T01:22:46;18.39;71.96
65876;HTU21D;52657;51.128;5.938;2023-05-07T01:25:12;18.39;71.95
65876;HTU21D;52657;51.128;5.938;2023-05-07T01:27:43;18.38;71.97
65876;HTU21D;52657;51.128;5.938;2023-05-07T01:30:09;18.37;71.93
65876;HTU21D;52657;51.128;5.938;2023-05-07T01:32:52;18.35;71.96
65876;HTU21D;52657;51.128;5.938;2023-05-07T01:35:22;18.30;72.13
65876;HTU21D;52657;51.128;5.938;2023-05-07T01:37:50;18.28;72.25
65876;HTU21D;52657;51.128;5.938;2023-05-07T01:40:16;18.23;72.43
65876;HTU21D;52657;51.128;5.938;2023-05-07T01:42:46;18.22;72.69
65876;HTU21D;52657;51.128;5.938;2023-05-07T01:45:13;18.23;72.61
65876;HTU21D;52657;51.128;5.938;2023-05-07T01:47:39;18.23;72.44
65876;HTU21D;52657;51.128;5.938;2023-05-07T01:50:06;18.26;72.26
65876;HTU21D;52657;51.128;5.938;2023-05-07T01:52:34;18.22;72.37
65876;HTU21D;52657;51.128;5.938;2023-05-07T01:55:00;18.21;72.44
65876;HTU21D;52657;51.128;5.938;2023-05-07T01:57:25;18.20;72.36
65876;HTU21D;52657;51.128;5.938;2023-05-07T01:59:51;18.17;72.40
65876;HTU21D;52657;51.128;5.938;2023-05-07T02:02:17;18.13;72.42
65876;HTU21D;52657;51.128;5.938;2023-05-07T02:04:43;18.12;72.48
65876;HTU21D;52657;51.128;5.938;2023-05-07T02:07:10;18.11;72.45
65876;HTU21D;52657;51.128;5.938;2023-05-07T02:09:37;18.08;72.41
65876;HTU21D;52657;51.128;5.938;2023-05-07T02:12:03;18.07;72.45
65876;HTU21D;52657;51.128;5.938;2023-05-07T02:14:38;18.05;72.41
65876;HTU21D;52657;51.128;5.938;2023-05-07T02:17:04;17.99;72.39
65876;HTU21D;52657;51.128;5.938;2023-05-07T02:19:29;17.97;72.53
65876;HTU21D;52657;51.128;5.938;2023-05-07T02:21:55;17.93;72.61
65876;HTU21D;52657;51.128;5.938;2023-05-07T02:24:21;17.91;72.67
65876;HTU21D;52657;51.128;5.938;2023-05-07T02:26:46;17.87;72.81
65876;HTU21D;52657;51.128;5.938;2023-05-07T02:29:12;17.87;73.08
65876;HTU21D;52657;51.128;5.938;2023-05-07T02:31:39;17.88;73.23
65876;HTU21D;52657;51.128;5.938;2023-05-07T02:34:05;17.88;73.15
65876;HTU21D;52657;51.128;5.938;2023-05-07T02:36:30;17.88;72.98
65876;HTU21D;52657;51.128;5.938;2023-05-07T02:39:03;17.87;72.92
65876;HTU21D;52657;51.128;5.938;2023-05-07T02:41:28;17.89;72.78
65876;HTU21D;52657;51.128;5.938;2023-05-07T02:43:54;17.87;72.67
65876;HTU21D;52657;51.128;5.938;2023-05-07T02:46:20;17.85;72.77
65876;HTU21D;52657;51.128;5.938;2023-05-07T02:48:51;17.88;72.75
65876;HTU21D;52657;51.128;5.938;2023-05-07T02:51:21;17.87;72.74
65876;HTU21D;52657;51.128;5.938;2023-05-07T02:53:47;17.84;72.80
65876;HTU21D;52657;51.128;5.938;2023-05-07T02:56:13;17.85;72.82
65876;HTU21D;52657;51.128;5.938;2023-05-07T02:58:39;17.84;72.90
65876;HTU21D;52657;51.128;5.938;2023-05-07T03:01:08;17.80;73.03
65876;HTU21D;52657;51.128;5.938;2023-05-07T03:04:00;17.82;72.93
65876;HTU21D;52657;51.128;5.938;2023-05-07T03:06:26;17.84;72.73
65876;HTU21D;52657;51.128;5.938;2023-05-07T03:08:52;17.85;72.59
65876;HTU21D;52657;51.128;5.938;2023-05-07T03:11:18;17.82;72.66
65876;HTU21D;52657;51.128;5.938;2023-05-07T03:13:44;17.81;72.84
65876;HTU21D;52657;51.128;5.938;2023-05-07T03:16:09;17.79;72.84
65876;HTU21D;52657;51.128;5.938;2023-05-07T03:18:35;17.78;72.90
65876;HTU21D;52657;51.128;5.938;2023-05-07T03:21:00;17.78;72.94
65876;HTU21D;52657;51.128;5.938;2023-05-07T03:23:26;17.78;72.98
65876;HTU21D;52657;51.128;5.938;2023-05-07T03:25:52;17.80;72.93
65876;HTU21D;52657;51.128;5.938;2023-05-07T03:28:18;17.78;72.84
65876;HTU21D;52657;51.128;5.938;2023-05-07T03:30:50;17.78;72.92
65876;HTU21D;52657;51.128;5.938;2023-05-07T03:33:16;17.75;72.96
65876;HTU21D;52657;51.128;5.938;2023-05-07T03:35:42;17.74;73.12
65876;HTU21D;52657;51.128;5.938;2023-05-07T03:38:08;17.75;73.12
65876;HTU21D;52657;51.128;5.938;2023-05-07T03:40:35;17.76;73.15
65876;HTU21D;52657;51.128;5.938;2023-05-07T03:43:02;17.76;73.08
65876;HTU21D;52657;51.128;5.938;2023-05-07T03:45:30;17.72;73.14
65876;HTU21D;52657;51.128;5.938;2023-05-07T03:48:05;17.67;73.37
65876;HTU21D;52657;51.128;5.938;2023-05-07T03:50:31;17.67;73.45
65876;HTU21D;52657;51.128;5.938;2023-05-07T03:52:57;17.64;73.58
65876;HTU21D;52657;51.128;5.938;2023-05-07T03:55:23;17.64;73.46
65876;HTU21D;52657;51.128;5.938;2023-05-07T03:57:54;17.64;73.34
65876;HTU21D;52657;51.128;5.938;2023-05-07T04:00:20;17.65;73.36
65876;HTU21D;52657;51.128;5.938;2023-05-07T04:02:46;17.67;73.42
65876;HTU21D;52657;51.128;5.938;2023-05-07T04:05:14;17.69;73.41
65876;HTU21D;52657;51.128;5.938;2023-05-07T04:07:41;17.72;73.39
65876;HTU21D;52657;51.128;5.938;2023-05-07T04:10:08;17.73;73.40
65876;HTU21D;52657;51.128;5.938;2023-05-07T04:12:34;17.72;73.41
65876;HTU21D;52657;51.128;5.938;2023-05-07T04:15:00;17.70;73.39
65876;HTU21D;52657;51.128;5.938;2023-05-07T04:17:26;17.70;73.31
65876;HTU21D;52657;51.128;5.938;2023-05-07T04:19:51;17.68;73.27
65876;HTU21D;52657;51.128;5.938;2023-05-07T04:22:18;17.62;73.43
65876;HTU21D;52657;51.128;5.938;2023-05-07T04:24:44;17.58;73.48
65876;HTU21D;52657;51.128;5.938;2023-05-07T04:27:11;17.54;73.67
65876;HTU21D;52657;51.128;5.938;2023-05-07T04:29:38;17.53;73.81
65876;HTU21D;52657;51.128;5.938;2023-05-07T04:32:09;17.49;74.03
65876;HTU21D;52657;51.128;5.938;2023-05-07T04:34:37;17.45;74.22
65876;HTU21D;52657;51.128;5.938;2023-05-07T04:37:03;17.46;74.24
65876;HTU21D;52657;51.128;5.938;2023-05-07T04:39:30;17.44;74.24
65876;HTU21D;52657;51.128;5.938;2023-05-07T04:41:55;17.41;74.52
65876;HTU21D;52657;51.128;5.938;2023-05-07T04:44:22;17.47;74.51
65876;HTU21D;52657;51.128;5.938;2023-05-07T04:46:48;17.47;74.44
65876;HTU21D;52657;51.128;5.938;2023-05-07T04:49:13;17.49;74.46
65876;HTU21D;52657;51.128;5.938;2023-05-07T04:51:39;17.47;74.59
65876;HTU21D;52657;51.128;5.938;2023-05-07T04:54:09;17.49;74.65
65876;HTU21D;52657;51.128;5.938;2023-05-07T04:56:35;17.53;74.60
65876;HTU21D;52657;51.128;5.938;2023-05-07T04:59:01;17.59;74.55
65876;HTU21D;52657;51.128;5.938;2023-05-07T05:01:28;17.61;74.45
65876;HTU21D;52657;51.128;5.938;2023-05-07T05:03:54;17.61;74.41
65876;HTU21D;52657;51.128;5.938;2023-05-07T05:06:20;17.64;74.28
65876;HTU21D;52657;51.128;5.938;2023-05-07T05:08:45;17.68;74.41
65876;HTU21D;52657;51.128;5.938;2023-05-07T05:11:12;17.70;74.35
65876;HTU21D;52657;51.128;5.938;2023-05-07T05:13:37;17.76;74.31
65876;HTU21D;52657;51.128;5.938;2023-05-07T05:16:14;17.77;74.07
65876;HTU21D;52657;51.128;5.938;2023-05-07T05:18:40;17.80;74.07
65876;HTU21D;52657;51.128;5.938;2023-05-07T05:21:07;17.83;73.97
65876;HTU21D;52657;51.128;5.938;2023-05-07T05:23:34;17.91;73.76
65876;HTU21D;52657;51.128;5.938;2023-05-07T05:26:00;17.98;73.59
65876;HTU21D;52657;51.128;5.938;2023-05-07T05:28:29;18.05;73.44
65876;HTU21D;52657;51.128;5.938;2023-05-07T05:30:55;18.11;72.99
65876;HTU21D;52657;51.128;5.938;2023-05-07T05:33:22;18.17;72.64
65876;HTU21D;52657;51.128;5.938;2023-05-07T05:35:49;18.21;72.68
65876;HTU21D;52657;51.128;5.938;2023-05-07T05:38:15;18.27;72.55
65876;HTU21D;52657;51.128;5.938;2023-05-07T05:40:41;18.33;72.41
65876;HTU21D;52657;51.128;5.938;2023-05-07T05:43:06;18.37;72.37
65876;HTU21D;52657;51.128;5.938;2023-05-07T05:45:47;18.43;72.26
65876;HTU21D;52657;51.128;5.938;2023-05-07T05:48:13;18.47;71.98
65876;HTU21D;52657;51.128;5.938;2023-05-07T05:50:39;18.48;71.48
65876;HTU21D;52657;51.128;5.938;2023-05-07T05:53:06;18.42;71.27
65876;HTU21D;52657;51.128;5.938;2023-05-07T05:55:34;18.39;71.25
65876;HTU21D;52657;51.128;5.938;2023-05-07T05:58:03;18.38;71.27
65876;HTU21D;52657;51.128;5.938;2023-05-07T06:00:31;18.37;71.42
65876;HTU21D;52657;51.128;5.938;2023-05-07T06:03:02;18.35;71.41
65876;HTU21D;52657;51.128;5.938;2023-05-07T06:05:28;18.34;71.32
65876;HTU21D;52657;51.128;5.938;2023-05-07T06:07:55;18.32;71.52
65876;HTU21D;52657;51.128;5.938;2023-05-07T06:10:21;18.33;72.00
65876;HTU21D;52657;51.128;5.938;2023-05-07T06:12:47;18.38;72.09
65876;HTU21D;52657;51.128;5.938;2023-05-07T06:15:13;18.40;71.73
65876;HTU21D;52657;51.128;5.938;2023-05-07T06:17:40;18.41;71.39
65876;HTU21D;52657;51.128;5.938;2023-05-07T06:20:06;18.44;71.71
65876;HTU21D;52657;51.128;5.938;2023-05-07T06:22:32;18.49;71.37
65876;HTU21D;52657;51.128;5.938;2023-05-07T06:25:00;18.52;71.20
65876;HTU21D;52657;51.128;5.938;2023-05-07T06:27:29;18.57;71.66
65876;HTU21D;52657;51.128;5.938;2023-05-07T06:29:56;18.63;71.84
65876;HTU21D;52657;51.128;5.938;2023-05-07T06:32:22;18.70;71.71
65876;HTU21D;52657;51.128;5.938;2023-05-07T06:34:48;18.73;71.37
65876;HTU21D;52657;51.128;5.938;2023-05-07T06:37:14;18.77;70.93
65876;HTU21D;52657;51.128;5.938;2023-05-07T06:39:52;18.77;70.60
65876;HTU21D;52657;51.128;5.938;2023-05-07T06:42:19;18.83;70.64
65876;HTU21D;52657;51.128;5.938;2023-05-07T06:44:48;18.89;70.10
65876;HTU21D;52657;51.128;5.938;2023-05-07T06:47:16;18.96;69.91
65876;HTU21D;52657;51.128;5.938;2023-05-07T06:49:54;19.02;69.67
65876;HTU21D;52657;51.128;5.938;2023-05-07T06:52:24;19.07;70.05
65876;HTU21D;52657;51.128;5.938;2023-05-07T06:54:50;19.09;69.52
65876;HTU21D;52657;51.128;5.938;2023-05-07T06:57:18;19.11;69.42
65876;HTU21D;52657;51.128;5.938;2023-05-07T06:59:43;19.15;69.64
65876;HTU21D;52657;51.128;5.938;2023-05-07T07:02:09;19.20;69.90
65876;HTU21D;52657;51.128;5.938;2023-05-07T07:04:35;19.26;69.32
65876;HTU21D;52657;51.128;5.938;2023-05-07T07:07:07;19.28;68.75
65876;HTU21D;52657;51.128;5.938;2023-05-07T07:09:34;19.35;68.87
65876;HTU21D;52657;51.128;5.938;2023-05-07T07:12:02;19.40;69.18
65876;HTU21D;52657;51.128;5.938;2023-05-07T07:14:36;19.50;69.06
65876;HTU21D;52657;51.128;5.938;2023-05-07T07:17:03;19.59;69.04
65876;HTU21D;52657;51.128;5.938;2023-05-07T07:19:31;19.63;69.00
65876;HTU21D;52657;51.128;5.938;2023-05-07T07:21:57;19.77;69.30
65876;HTU21D;52657;51.128;5.938;2023-05-07T07:24:23;19.88;68.78
65876;HTU21D;52657;51.128;5.938;2023-05-07T07:26:53;19.99;68.33
65876;HTU21D;52657;51.128;5.938;2023-05-07T07:29:21;20.07;67.40
65876;HTU21D;52657;51.128;5.938;2023-05-07T07:31:48;20.13;66.93
65876;HTU21D;52657;51.128;5.938;2023-05-07T07:34:14;20.24;67.25
65876;HTU21D;52657;51.128;5.938;2023-05-07T07:36:41;20.34;67.23
65876;HTU21D;52657;51.128;5.938;2023-05-07T07:39:08;20.41;66.57
65876;HTU21D;52657;51.128;5.938;2023-05-07T07:41:33;20.43;65.95
65876;HTU21D;52657;51.128;5.938;2023-05-07T07:43:59;20.47;65.76
65876;HTU21D;52657;51.128;5.938;2023-05-07T07:46:25;20.59;66.07
65876;HTU21D;52657;51.128;5.938;2023-05-07T07:48:52;20.66;66.38
65876;HTU21D;52657;51.128;5.938;2023-05-07T07:51:18;20.86;65.78
65876;HTU21D;52657;51.128;5.938;2023-05-07T07:53:44;21.08;65.96
65876;HTU21D;52657;51.128;5.938;2023-05-07T07:56:13;21.33;64.72
65876;HTU21D;52657;51.128;5.938;2023-05-07T07:58:38;21.52;64.18
65876;HTU21D;52657;51.128;5.938;2023-05-07T08:01:04;21.81;63.79
65876;HTU21D;52657;51.128;5.938;2023-05-07T08:03:30;22.08;63.13
65876;HTU21D;52657;51.128;5.938;2023-05-07T08:05:58;22.39;62.31
65876;HTU21D;52657;51.128;5.938;2023-05-07T08:08:24;22.65;60.37
65876;HTU21D;52657;51.128;5.938;2023-05-07T08:10:51;22.85;59.67
65876;HTU21D;52657;51.128;5.938;2023-05-07T08:13:27;23.12;58.33
65876;HTU21D;52657;51.128;5.938;2023-05-07T08:15:53;23.35;56.54
65876;HTU21D;52657;51.128;5.938;2023-05-07T08:18:19;23.56;56.06
65876;HTU21D;52657;51.128;5.938;2023-05-07T08:20:45;23.82;55.89
65876;HTU21D;52657;51.128;5.938;2023-05-07T08:23:15;24.09;54.40
65876;HTU21D;52657;51.128;5.938;2023-05-07T08:25:42;24.32;55.28
65876;HTU21D;52657;51.128;5.938;2023-05-07T08:28:10;24.49;53.83
65876;HTU21D;52657;51.128;5.938;2023-05-07T08:30:37;24.59;53.01
65876;HTU21D;52657;51.128;5.938;2023-05-07T08:33:03;24.71;52.53
65876;HTU21D;52657;51.128;5.938;2023-05-07T08:35:29;24.76;52.11
65876;HTU21D;52657;51.128;5.938;2023-05-07T08:38:07;24.75;51.57
65876;HTU21D;52657;51.128;5.938;2023-05-07T08:40:39;24.70;52.68
65876;HTU21D;52657;51.128;5.938;2023-05-07T08:43:13;24.54;53.84
65876;HTU21D;52657;51.128;5.938;2023-05-07T08:45:45;24.48;53.41
65876;HTU21D;52657;51.128;5.938;2023-05-07T08:48:16;24.50;52.23
65876;HTU21D;52657;51.128;5.938;2023-05-07T08:50:45;24.28;52.02
65876;HTU21D;52657;51.128;5.938;2023-05-07T08:53:11;24.06;52.66
65876;HTU21D;52657;51.128;5.938;2023-05-07T08:55:39;24.00;51.95
65876;HTU21D;52657;51.128;5.938;2023-05-07T08:58:05;24.08;52.78
65876;HTU21D;52657;51.128;5.938;2023-05-07T09:00:32;24.03;52.67
65876;HTU21D;52657;51.128;5.938;2023-05-07T09:03:00;23.97;52.07
65876;HTU21D;52657;51.128;5.938;2023-05-07T09:05:27;23.81;53.05
65876;HTU21D;52657;51.128;5.938;2023-05-07T09:07:52;23.70;53.89
65876;HTU21D;52657;51.128;5.938;2023-05-07T09:10:20;23.69;53.90
65876;HTU21D;52657;51.128;5.938;2023-05-07T09:12:49;23.66;54.70
65876;HTU21D;52657;51.128;5.938;2023-05-07T09:15:18;23.67;54.55
65876;HTU21D;52657;51.128;5.938;2023-05-07T09:17:43;23.72;55.03
65876;HTU21D;52657;51.128;5.938;2023-05-07T09:20:10;23.77;54.20
65876;HTU21D;52657;51.128;5.938;2023-05-07T09:22:38;23.83;53.64
65876;HTU21D;52657;51.128;5.938;2023-05-07T09:25:08;23.86;53.51
65876;HTU21D;52657;51.128;5.938;2023-05-07T09:27:37;23.81;53.48
65876;HTU21D;52657;51.128;5.938;2023-05-07T09:30:07;23.75;53.66
65876;HTU21D;52657;51.128;5.938;2023-05-07T09:32:37;23.79;53.65
65876;HTU21D;52657;51.128;5.938;2023-05-07T09:35:15;23.74;53.33
65876;HTU21D;52657;51.128;5.938;2023-05-07T09:37:42;23.73;51.92
65876;HTU21D;52657;51.128;5.938;2023-05-07T09:40:08;23.71;51.88
65876;HTU21D;52657;51.128;5.938;2023-05-07T09:42:45;23.76;52.20
65876;HTU21D;52657;51.128;5.938;2023-05-07T09:45:12;23.76;51.62
65876;HTU21D;52657;51.128;5.938;2023-05-07T09:47:43;23.84;51.64
65876;HTU21D;52657;51.128;5.938;2023-05-07T09:50:12;23.94;50.43
65876;HTU21D;52657;51.128;5.938;2023-05-07T09:52:45;24.00;49.18
65876;HTU21D;52657;51.128;5.938;2023-05-07T09:55:15;24.08;49.18
65876;HTU21D;52657;51.128;5.938;2023-05-07T09:57:42;24.14;49.04
65876;HTU21D;52657;51.128;5.938;2023-05-07T10:00:08;24.27;48.79
65876;HTU21D;52657;51.128;5.938;2023-05-07T10:02:52;24.20;49.20
65876;HTU21D;52657;51.128;5.938;2023-05-07T10:05:29;24.34;49.05
65876;HTU21D;52657;51.128;5.938;2023-05-07T10:07:58;24.46;49.61
65876;HTU21D;52657;51.128;5.938;2023-05-07T10:10:27;24.60;49.72
65876;HTU21D;52657;51.128;5.938;2023-05-07T10:12:57;24.66;49.53
65876;HTU21D;52657;51.128;5.938;2023-05-07T10:15:29;24.82;49.02
65876;HTU21D;52657;51.128;5.938;2023-05-07T10:17:57;24.90;48.99
65876;HTU21D;52657;51.128;5.938;2023-05-07T10:20:26;24.97;45.91
65876;HTU21D;52657;51.128;5.938;2023-05-07T10:22:56;24.99;46.31
65876;HTU21D;52657;51.128;5.938;2023-05-07T10:25:32;25.04;47.01
65876;HTU21D;52657;51.128;5.938;2023-05-07T10:28:07;25.02;47.61
65876;HTU21D;52657;51.128;5.938;2023-05-07T10:33:17;25.17;47.20
65876;HTU21D;52657;51.128;5.938;2023-05-07T10:35:47;25.30;47.07
65876;HTU21D;52657;51.128;5.938;2023-05-07T10:38:15;25.48;46.76
65876;HTU21D;52657;51.128;5.938;2023-05-07T10:40:43;25.60;46.48
65876;HTU21D;52657;51.128;5.938;2023-05-07T10:43:09;25.66;47.24
65876;HTU21D;52657;51.128;5.938;2023-05-07T10:45:43;25.74;48.21
65876;HTU21D;52657;51.128;5.938;2023-05-07T10:48:16;25.84;47.30
65876;HTU21D;52657;51.128;5.938;2023-05-07T10:51:20;25.94;47.09
65876;HTU21D;52657;51.128;5.938;2023-05-07T10:56:34;25.81;48.39
65876;HTU21D;52657;51.128;5.938;2023-05-07T11:02:02;25.63;47.47
65876;HTU21D;52657;51.128;5.938;2023-05-07T11:04:40;25.59;48.54
65876;HTU21D;52657;51.128;5.938;2023-05-07T11:07:27;25.62;47.93
65876;HTU21D;52657;51.128;5.938;2023-05-07T11:10:00;25.64;48.14
65876;HTU21D;52657;51.128;5.938;2023-05-07T11:12:51;25.62;47.92
65876;HTU21D;52657;51.128;5.938;2023-05-07T11:15:37;25.68;48.50
65876;HTU21D;52657;51.128;5.938;2023-05-07T11:18:06;25.75;47.85
65876;HTU21D;52657;51.128;5.938;2023-05-07T11:20:46;25.69;47.67
65876;HTU21D;52657;51.128;5.938;2023-05-07T11:26:14;25.77;48.69
65876;HTU21D;52657;51.128;5.938;2023-05-07T11:28:43;25.75;47.84
65876;HTU21D;52657;51.128;5.938;2023-05-07T11:31:10;25.58;47.86
65876;HTU21D;52657;51.128;5.938;2023-05-07T11:33:38;25.53;48.53
65876;HTU21D;52657;51.128;5.938;2023-05-07T11:36:08;25.53;47.47
65876;HTU21D;52657;51.128;5.938;2023-05-07T11:38:39;25.51;47.13
65876;HTU21D;52657;51.128;5.938;2023-05-07T11:41:08;25.50;46.68
65876;HTU21D;52657;51.128;5.938;2023-05-07T11:43:34;25.51;46.63
65876;HTU21D;52657;51.128;5.938;2023-05-07T11:46:09;25.49;46.12
65876;HTU21D;52657;51.128;5.938;2023-05-07T11:48:36;25.47;46.01
65876;HTU21D;52657;51.128;5.938;2023-05-07T11:51:04;25.42;46.35
65876;HTU21D;52657;51.128;5.938;2023-05-07T11:53:41;25.42;46.58
65876;HTU21D;52657;51.128;5.938;2023-05-07T11:56:15;25.32;46.61
65876;HTU21D;52657;51.128;5.938;2023-05-07T11:58:42;25.28;47.05
65876;HTU21D;52657;51.128;5.938;2023-05-07T12:01:10;25.28;46.59
65876;HTU21D;52657;51.128;5.938;2023-05-07T12:03:37;25.28;46.47
65876;HTU21D;52657;51.128;5.938;2023-05-07T12:06:07;25.22;46.44
65876;HTU21D;52657;51.128;5.938;2023-05-07T12:08:38;25.25;46.83
65876;HTU21D;52657;51.128;5.938;2023-05-07T12:11:12;25.27;46.67
65876;HTU21D;52657;51.128;5.938;2023-05-07T12:13:38;25.23;46.70
65876;HTU21D;52657;51.128;5.938;2023-05-07T12:16:06;25.21;47.70
65876;HTU21D;52657;51.128;5.938;2023-05-07T12:18:34;25.21;47.92
65876;HTU21D;52657;51.128;5.938;2023-05-07T12:21:01;25.20;48.00
65876;HTU21D;52657;51.128;5.938;2023-05-07T12:23:35;25.17;48.12
65876;HTU21D;52657;51.128;5.938;2023-05-07T12:26:05;25.10;49.00
65876;HTU21D;52657;51.128;5.938;2023-05-07T12:28:37;25.07;50.37
65876;HTU21D;52657;51.128;5.938;2023-05-07T12:31:04;24.94;51.11
65876;HTU21D;52657;51.128;5.938;2023-05-07T12:33:31;24.87;52.09
65876;HTU21D;52657;51.128;5.938;2023-05-07T12:36:06;24.85;52.41
65876;HTU21D;52657;51.128;5.938;2023-05-07T12:38:35;24.86;52.79
65876;HTU21D;52657;51.128;5.938;2023-05-07T12:41:02;24.83;53.43
65876;HTU21D;52657;51.128;5.938;2023-05-07T12:43:30;24.82;53.88
65876;HTU21D;52657;51.128;5.938;2023-05-07T12:46:05;24.79;54.97
65876;HTU21D;52657;51.128;5.938;2023-05-07T12:48:31;24.78;55.78
65876;HTU21D;52657;51.128;5.938;2023-05-07T12:51:02;24.76;56.51
65876;HTU21D;52657;51.128;5.938;2023-05-07T12:53:29;24.74;56.83
65876;HTU21D;52657;51.128;5.938;2023-05-07T12:55:59;24.74;57.47
65876;HTU21D;52657;51.128;5.938;2023-05-07T12:58:33;24.75;58.19
65876;HTU21D;52657;51.128;5.938;2023-05-07T13:01:03;24.75;58.53
65876;HTU21D;52657;51.128;5.938;2023-05-07T13:03:31;24.78;58.31
65876;HTU21D;52657;51.128;5.938;2023-05-07T13:06:04;24.82;58.02
65876;HTU21D;52657;51.128;5.938;2023-05-07T13:08:35;24.84;58.16
65876;HTU21D;52657;51.128;5.938;2023-05-07T13:11:06;24.86;57.56
65876;HTU21D;52657;51.128;5.938;2023-05-07T13:13:37;24.84;57.30
65876;HTU21D;52657;51.128;5.938;2023-05-07T13:16:04;24.86;58.13
65876;HTU21D;52657;51.128;5.938;2023-05-07T13:18:33;24.85;57.55
65876;HTU21D;52657;51.128;5.938;2023-05-07T13:21:00;24.83;57.38
65876;HTU21D;52657;51.128;5.938;2023-05-07T13:23:31;24.83;57.26
65876;HTU21D;52657;51.128;5.938;2023-05-07T13:25:57;24.78;56.58
65876;HTU21D;52657;51.128;5.938;2023-05-07T13:28:24;24.71;56.36
65876;HTU21D;52657;51.128;5.938;2023-05-07T13:30:56;24.63;55.41
65876;HTU21D;52657;51.128;5.938;2023-05-07T13:33:21;24.57;56.03
65876;HTU21D;52657;51.128;5.938;2023-05-07T13:35:47;24.60;55.85
65876;HTU21D;52657;51.128;5.938;2023-05-07T13:38:13;24.60;55.83
65876;HTU21D;52657;51.128;5.938;2023-05-07T13:40:38;24.65;56.76
65876;HTU21D;52657;51.128;5.938;2023-05-07T13:43:05;24.73;57.42
65876;HTU21D;52657;51.128;5.938;2023-05-07T13:45:34;24.76;56.39
65876;HTU21D;52657;51.128;5.938;2023-05-07T13:48:03;24.74;55.47
65876;HTU21D;52657;51.128;5.938;2023-05-07T13:50:28;24.71;55.31
65876;HTU21D;52657;51.128;5.938;2023-05-07T13:52:55;24.66;56.05
65876;HTU21D;52657;51.128;5.938;2023-05-07T13:55:24;24.69;56.18
65876;HTU21D;52657;51.128;5.938;2023-05-07T13:58:01;24.73;55.87
65876;HTU21D;52657;51.128;5.938;2023-05-07T14:00:28;24.73;55.95
65876;HTU21D;52657;51.128;5.938;2023-05-07T14:02:57;24.70;56.82
65876;HTU21D;52657;51.128;5.938;2023-05-07T14:05:23;24.71;55.90
65876;HTU21D;52657;51.128;5.938;2023-05-07T14:07:51;24.74;55.00
65876;HTU21D;52657;51.128;5.938;2023-05-07T14:10:18;24.84;54.11
65876;HTU21D;52657;51.128;5.938;2023-05-07T14:12:46;24.89;52.98
65876;HTU21D;52657;51.128;5.938;2023-05-07T14:15:14;24.95;52.88
65876;HTU21D;52657;51.128;5.938;2023-05-07T14:17:43;25.03;52.78
65876;HTU21D;52657;51.128;5.938;2023-05-07T14:20:09;25.06;52.21
65876;HTU21D;52657;51.128;5.938;2023-05-07T14:22:36;25.05;51.69
65876;HTU21D;52657;51.128;5.938;2023-05-07T14:25:02;25.00;51.67
65876;HTU21D;52657;51.128;5.938;2023-05-07T14:27:34;24.95;51.22
65876;HTU21D;52657;51.128;5.938;2023-05-07T14:30:02;24.92;51.95
65876;HTU21D;52657;51.128;5.938;2023-05-07T14:32:28;25.02;51.33
65876;HTU21D;52657;51.128;5.938;2023-05-07T14:34:54;25.06;51.03
65876;HTU21D;52657;51.128;5.938;2023-05-07T14:37:20;25.13;49.49
65876;HTU21D;52657;51.128;5.938;2023-05-07T14:39:45;25.21;48.96
65876;HTU21D;52657;51.128;5.938;2023-05-07T14:42:11;25.31;49.21
65876;HTU21D;52657;51.128;5.938;2023-05-07T14:44:40;25.43;49.27
65876;HTU21D;52657;51.128;5.938;2023-05-07T14:47:07;25.51;48.37
65876;HTU21D;52657;51.128;5.938;2023-05-07T14:49:44;25.54;47.89
65876;HTU21D;52657;51.128;5.938;2023-05-07T14:52:10;25.52;48.44
65876;HTU21D;52657;51.128;5.938;2023-05-07T14:54:37;25.57;48.33
65876;HTU21D;52657;51.128;5.938;2023-05-07T14:57:04;25.58;47.56
65876;HTU21D;52657;51.128;5.938;2023-05-07T14:59:32;25.49;46.91
65876;HTU21D;52657;51.128;5.938;2023-05-07T15:01:58;25.42;48.01
65876;HTU21D;52657;51.128;5.938;2023-05-07T15:04:24;25.44;47.41
65876;HTU21D;52657;51.128;5.938;2023-05-07T15:06:52;25.47;47.20
65876;HTU21D;52657;51.128;5.938;2023-05-07T15:09:19;25.46;46.73
65876;HTU21D;52657;51.128;5.938;2023-05-07T15:11:45;25.44;46.97
65876;HTU21D;52657;51.128;5.938;2023-05-07T15:14:12;25.49;47.07
65876;HTU21D;52657;51.128;5.938;2023-05-07T15:16:40;25.53;47.05
65876;HTU21D;52657;51.128;5.938;2023-05-07T15:19:06;25.52;47.10
65876;HTU21D;52657;51.128;5.938;2023-05-07T15:21:34;25.45;47.41
65876;HTU21D;52657;51.128;5.938;2023-05-07T15:24:02;25.49;48.21
65876;HTU21D;52657;51.128;5.938;2023-05-07T15:26:28;25.48;48.37
65876;HTU21D;52657;51.128;5.938;2023-05-07T15:28:54;25.43;49.18
65876;HTU21D;52657;51.128;5.938;2023-05-07T15:31:24;25.51;49.60
65876;HTU21D;52657;51.128;5.938;2023-05-07T15:33:50;25.57;49.31